Time;durP1;ratioP1;P1;durP2;ratioP2;P2;SDS_P1;SDS_P2;PMS_P1;PMS_P2;Temp;Humidity;BMP_temperature;BMP_pressure;BME280_temperature;BME280_humidity;BME280_pressure;Samples;Min_cycle;Max_cycle;Signal;HPM_P1;HPM_P2
2023/11/15 00:02:15;;;;;;;10.13;2.55;;;11.30;99.90;;;;;;5127493;28;20050;-48
2023/11/15 00:04:41;;;;;;;12.43;2.83;;;11.20;99.90;;;;;;5127683;28;20071;-49
2023/11/15 00:07:06;;;;;;;13.15;3.00;;;11.20;99.90;;;;;;5127232;28;20321;-47
2023/11/15 00:09:33;;;;;;;18.65;3.00;;;11.10;99.90;;;;;;5127456;28;20039;-48
2023/11/15 00:11:59;;;;;;;12.75;2.58;;;11.10;99.90;;;;;;5127404;28;20020;-47
2023/11/15 00:14:24;;;;;;;11.82;3.72;;;11.10;99.90;;;;;;5127301;28;20035;-48
2023/11/15 00:16:50;;;;;;;7.03;1.80;;;11.10;99.90;;;;;;5127323;28;20059;-49
2023/11/15 00:19:17;;;;;;;12.80;2.45;;;11.00;99.90;;;;;;5126883;28;20072;-49
2023/11/15 00:21:42;;;;;;;17.48;2.85;;;11.00;99.90;;;;;;5127040;28;20278;-47
2023/11/15 00:24:09;;;;;;;11.65;2.05;;;11.00;99.90;;;;;;5126163;28;20091;-49
2023/11/15 00:26:35;;;;;;;9.73;2.40;;;11.00;99.90;;;;;;5127118;28;20024;-48
2023/11/15 00:29:02;;;;;;;10.48;2.00;;;11.00;99.90;;;;;;5127124;28;20031;-47
2023/11/15 00:31:28;;;;;;;7.40;2.20;;;11.00;99.90;;;;;;5125848;28;20031;-47
2023/11/15 00:33:54;;;;;;;13.35;2.05;;;11.00;99.90;;;;;;5126819;28;20068;-50
2023/11/15 00:36:20;;;;;;;19.05;2.33;;;10.90;99.90;;;;;;5125665;28;20031;-49
2023/11/15 00:38:46;;;;;;;6.70;1.52;;;10.90;99.90;;;;;;5126976;28;20032;-49
2023/11/15 00:41:13;;;;;;;8.88;2.10;;;11.00;99.90;;;;;;5126926;28;20035;-46
2023/11/15 00:43:39;;;;;;;11.27;1.75;;;11.00;99.90;;;;;;5126789;28;20181;-47
2023/11/15 00:46:05;;;;;;;7.00;1.60;;;11.00;99.90;;;;;;5125651;28;20036;-50
2023/11/15 00:48:31;;;;;;;9.88;1.70;;;11.00;99.90;;;;;;5126734;28;20024;-47
2023/11/15 00:50:56;;;;;;;12.65;1.90;;;11.10;99.90;;;;;;5126324;28;20038;-50
2023/11/15 00:53:22;;;;;;;9.05;2.05;;;11.10;99.90;;;;;;5126904;28;20281;-51
2023/11/15 00:55:48;;;;;;;9.02;1.60;;;11.20;99.90;;;;;;5126555;28;20028;-50
2023/11/15 00:58:14;;;;;;;13.38;1.70;;;11.10;99.90;;;;;;5126519;28;20027;-49
2023/11/15 01:00:44;;;;;;;7.50;1.73;;;11.10;99.90;;;;;;5126632;28;20036;-48
2023/11/15 01:03:12;;;;;;;9.30;1.58;;;11.10;99.90;;;;;;5125711;28;20023;-51
2023/11/15 01:05:38;;;;;;;8.20;1.65;;;11.00;99.90;;;;;;5126504;28;20023;-48
2023/11/15 01:08:04;;;;;;;8.73;1.45;;;11.00;99.90;;;;;;5126394;28;20058;-49
2023/11/15 01:10:31;;;;;;;9.23;1.58;;;11.00;99.90;;;;;;5108465;28;20100;-47
2023/11/15 01:13:00;;;;;;;10.38;1.83;;;11.00;99.90;;;;;;5126462;28;20054;-49
2023/11/15 01:15:26;;;;;;;8.55;1.70;;;11.00;99.90;;;;;;5126264;28;20031;-50
2023/11/15 01:17:52;;;;;;;12.30;2.17;;;11.00;99.90;;;;;;5125943;28;20039;-50
2023/11/15 01:20:17;;;;;;;18.17;2.58;;;11.00;99.90;;;;;;5126229;28;20296;-49
2023/11/15 01:22:43;;;;;;;11.13;2.10;;;11.00;99.90;;;;;;5125965;28;20095;-48
2023/11/15 01:25:09;;;;;;;11.40;1.75;;;11.00;99.90;;;;;;5126287;28;20020;-47
2023/11/15 01:27:38;;;;;;;9.30;1.70;;;11.00;99.90;;;;;;5126221;28;20028;-47
2023/11/15 01:30:04;;;;;;;16.15;2.30;;;11.00;99.90;;;;;;5126247;28;20043;-48
2023/11/15 01:32:30;;;;;;;14.98;2.30;;;11.00;99.90;;;;;;5126162;28;20280;-47
2023/11/15 01:34:56;;;;;;;11.43;2.08;;;11.00;99.90;;;;;;5126288;28;20068;-48
2023/11/15 01:37:22;;;;;;;12.70;2.15;;;11.00;99.90;;;;;;5125772;28;20036;-47
2023/11/15 01:39:48;;;;;;;10.25;2.08;;;10.90;99.90;;;;;;5125945;28;20039;-50
2023/11/15 01:42:13;;;;;;;10.52;2.30;;;10.90;99.90;;;;;;5126078;28;20334;-46
2023/11/15 01:44:39;;;;;;;12.88;2.50;;;10.80;99.90;;;;;;5125182;28;20035;-47
2023/11/15 01:47:05;;;;;;;13.65;2.28;;;10.80;99.90;;;;;;5126154;28;20020;-49
2023/11/15 01:49:30;;;;;;;16.05;2.70;;;10.80;99.90;;;;;;5108323;28;20106;-49
2023/11/15 01:51:56;;;;;;;13.73;2.40;;;10.80;99.90;;;;;;5126012;28;20044;-48
2023/11/15 01:54:22;;;;;;;12.65;2.65;;;10.70;99.90;;;;;;5107835;28;20047;-47
2023/11/15 01:56:48;;;;;;;13.77;2.78;;;10.70;99.90;;;;;;5125527;28;20237;-48
2023/11/15 01:59:14;;;;;;;18.83;3.00;;;10.70;99.90;;;;;;5125062;28;20076;-48
2023/11/15 02:01:40;;;;;;;18.38;3.13;;;10.70;99.90;;;;;;5126076;28;20095;-48
2023/11/15 02:04:06;;;;;;;18.92;2.92;;;10.70;99.90;;;;;;5125796;28;20063;-48
2023/11/15 02:06:32;;;;;;;13.23;2.97;;;10.70;99.90;;;;;;5125647;28;20035;-48
2023/11/15 02:08:58;;;;;;;19.20;3.33;;;10.70;99.90;;;;;;5125915;28;20043;-49
2023/11/15 02:11:25;;;;;;;16.50;2.95;;;10.70;99.90;;;;;;5107870;28;20036;-47
2023/11/15 02:13:51;;;;;;;11.30;2.15;;;10.60;99.90;;;;;;5125628;28;20273;-55
2023/11/15 02:16:17;;;;;;;14.55;2.45;;;10.60;99.90;;;;;;5125647;28;20058;-49
2023/11/15 02:18:43;;;;;;;15.88;2.65;;;10.70;99.90;;;;;;5124908;28;20293;-49
2023/11/15 02:21:09;;;;;;;18.05;3.13;;;10.60;99.90;;;;;;5125839;28;20083;-48
2023/11/15 02:23:45;;;;;;;13.02;2.22;;;10.60;99.90;;;;;;5125908;28;20144;-48
2023/11/15 02:26:10;;;;;;;12.63;2.53;;;10.60;99.90;;;;;;5124417;28;20028;-48
2023/11/15 02:28:36;;;;;;;14.60;3.30;;;10.50;99.90;;;;;;5125869;28;20080;-49
2023/11/15 02:31:02;;;;;;;21.50;2.83;;;10.50;99.90;;;;;;5127512;28;20261;-47
2023/11/15 02:33:28;;;;;;;12.00;2.10;;;10.50;99.90;;;;;;5129122;28;20027;-50
2023/11/15 02:35:53;;;;;;;13.98;2.03;;;10.50;99.90;;;;;;5129223;28;20110;-48
2023/11/15 02:38:19;;;;;;;21.08;3.08;;;10.60;99.90;;;;;;5129327;28;20024;-47
2023/11/15 02:40:45;;;;;;;20.33;2.50;;;10.60;99.90;;;;;;5129318;28;20170;-47
2023/11/15 02:43:12;;;;;;;17.10;2.45;;;10.60;99.90;;;;;;5129317;28;20028;-47
2023/11/15 02:45:38;;;;;;;16.52;2.97;;;10.60;99.90;;;;;;5128933;28;20277;-47
2023/11/15 02:48:03;;;;;;;11.90;2.25;;;10.60;99.90;;;;;;5128978;28;20050;-48
2023/11/15 02:50:32;;;;;;;22.35;2.80;;;10.60;99.90;;;;;;5129016;28;20050;-51
2023/11/15 02:52:58;;;;;;;13.95;2.58;;;10.60;99.90;;;;;;5128992;28;20031;-50
2023/11/15 02:55:23;;;;;;;18.70;3.05;;;10.70;99.90;;;;;;5128912;28;20047;-51
2023/11/15 02:57:49;;;;;;;19.40;3.53;;;10.70;99.90;;;;;;5111000;28;20028;-50
2023/11/15 03:00:16;;;;;;;11.77;2.00;;;10.70;99.90;;;;;;5128737;28;20067;-50
2023/11/15 03:02:42;;;;;;;16.48;1.90;;;10.70;99.90;;;;;;5128846;28;20020;-50
2023/11/15 03:05:09;;;;;;;11.38;2.35;;;10.70;99.90;;;;;;5127741;28;20023;-50
2023/11/15 03:07:34;;;;;;;13.57;2.30;;;10.70;99.90;;;;;;5128619;28;20043;-50
2023/11/15 03:10:00;;;;;;;14.55;2.13;;;10.70;99.90;;;;;;5128504;28;20296;-50
2023/11/15 03:12:26;;;;;;;16.80;2.92;;;10.70;99.90;;;;;;5127604;28;20032;-49
2023/11/15 03:14:51;;;;;;;18.02;3.10;;;10.70;99.90;;;;;;5128743;28;20226;-50
2023/11/15 03:17:18;;;;;;;13.25;2.10;;;10.60;99.90;;;;;;5128327;28;20039;-50
2023/11/15 03:19:44;;;;;;;14.77;3.60;;;10.60;99.90;;;;;;5128330;28;20016;-47
2023/11/15 03:22:12;;;;;;;12.27;2.28;;;10.60;99.90;;;;;;5128349;28;20083;-48
2023/11/15 03:24:38;;;;;;;18.75;3.10;;;10.50;99.90;;;;;;5127543;28;20023;-48
2023/11/15 03:27:05;;;;;;;13.65;2.38;;;10.50;99.90;;;;;;5128369;28;20030;-47
2023/11/15 03:29:31;;;;;;;12.57;2.45;;;10.50;99.90;;;;;;5128291;28;20227;-48
2023/11/15 03:31:57;;;;;;;22.63;2.78;;;10.40;99.90;;;;;;5128265;28;20050;-47
2023/11/15 03:34:23;;;;;;;12.70;2.42;;;10.40;99.90;;;;;;5128258;28;20023;-47
2023/11/15 03:36:49;;;;;;;13.38;2.45;;;10.40;99.90;;;;;;5110119;28;20028;-47
2023/11/15 03:39:15;;;;;;;19.73;4.07;;;10.40;99.90;;;;;;5128225;28;20278;-49
2023/11/15 03:41:41;;;;;;;15.00;2.50;;;10.40;99.90;;;;;;5127862;28;20063;-49
2023/11/15 03:44:07;;;;;;;16.88;2.60;;;10.50;99.90;;;;;;5127876;28;20094;-48
2023/11/15 03:46:33;;;;;;;14.18;3.25;;;10.50;99.90;;;;;;5127148;28;20201;-50
2023/11/15 03:48:58;;;;;;;14.68;2.40;;;10.50;99.90;;;;;;5126971;28;20185;-48
2023/11/15 03:51:24;;;;;;;12.82;2.03;;;10.40;99.90;;;;;;5126690;28;20032;-48
2023/11/15 03:53:50;;;;;;;13.38;2.22;;;10.30;99.90;;;;;;5127677;28;20036;-46
2023/11/15 03:56:15;;;;;;;15.27;2.22;;;10.30;99.90;;;;;;5127767;28;20023;-47
2023/11/15 03:58:42;;;;;;;15.35;2.70;;;10.20;99.90;;;;;;5127835;28;20035;-47
2023/11/15 04:01:08;;;;;;;12.75;2.67;;;10.20;99.90;;;;;;5127253;28;20061;-46
2023/11/15 04:03:34;;;;;;;19.17;2.58;;;10.20;99.90;;;;;;5126576;28;20020;-48
2023/11/15 04:06:04;;;;;;;18.35;2.40;;;10.20;99.90;;;;;;5127615;28;20046;-47
2023/11/15 04:08:30;;;;;;;14.85;2.63;;;10.10;99.90;;;;;;5127478;28;20115;-50
2023/11/15 04:10:55;;;;;;;9.57;2.25;;;10.10;99.90;;;;;;5127520;28;20038;-50
2023/11/15 04:13:21;;;;;;;14.73;2.38;;;10.10;99.90;;;;;;5126306;28;20189;-50
2023/11/15 04:15:50;;;;;;;14.70;2.42;;;10.10;99.90;;;;;;5127320;28;20181;-50
2023/11/15 04:18:16;;;;;;;15.93;2.10;;;10.20;99.90;;;;;;5126325;28;20299;-49
2023/11/15 04:20:42;;;;;;;14.55;2.42;;;10.20;99.90;;;;;;5127402;28;20020;-50
2023/11/15 04:23:08;;;;;;;18.88;2.92;;;10.20;99.90;;;;;;5127180;28;20027;-49
2023/11/15 04:25:33;;;;;;;18.85;2.25;;;10.20;99.90;;;;;;5126967;28;20042;-50
2023/11/15 04:27:59;;;;;;;13.80;2.08;;;10.20;99.90;;;;;;5127116;28;20055;-47
2023/11/15 04:30:26;;;;;;;15.63;2.35;;;10.20;99.90;;;;;;5127188;28;20298;-51
2023/11/15 04:32:52;;;;;;;12.43;1.95;;;10.20;99.90;;;;;;5127139;28;20019;-50
2023/11/15 04:35:18;;;;;;;13.88;2.08;;;10.10;99.90;;;;;;5126657;28;20038;-47
2023/11/15 04:37:44;;;;;;;14.60;2.13;;;10.10;99.90;;;;;;5126839;28;20333;-48
2023/11/15 04:40:10;;;;;;;10.68;2.00;;;10.00;99.90;;;;;;5126853;28;20093;-49
2023/11/15 04:42:36;;;;;;;8.93;1.50;;;10.10;99.90;;;;;;5125941;28;20028;-47
2023/11/15 04:45:02;;;;;;;10.73;2.10;;;10.10;99.90;;;;;;5126872;28;20058;-48
2023/11/15 04:47:28;;;;;;;10.82;2.05;;;10.10;99.90;;;;;;5126713;28;20023;-50
2023/11/15 04:49:54;;;;;;;10.95;1.60;;;10.00;99.90;;;;;;5126581;28;20039;-49
2023/11/15 04:52:19;;;;;;;14.45;2.42;;;10.10;99.90;;;;;;5126591;28;20028;-48
2023/11/15 04:54:45;;;;;;;9.75;1.65;;;10.10;99.90;;;;;;5126379;28;20169;-50
2023/11/15 04:57:11;;;;;;;11.40;2.33;;;10.00;99.90;;;;;;5126645;28;20065;-48
2023/11/15 04:59:37;;;;;;;10.73;1.90;;;10.00;99.90;;;;;;5125510;28;20034;-49
2023/11/15 05:02:03;;;;;;;11.13;1.90;;;10.00;99.90;;;;;;5126431;28;20026;-47
2023/11/15 05:04:29;;;;;;;15.68;2.08;;;10.00;99.90;;;;;;5126128;28;20094;-49
2023/11/15 05:06:55;;;;;;;15.02;2.55;;;9.90;99.90;;;;;;5126281;28;20039;-48
2023/11/15 05:09:22;;;;;;;16.65;2.53;;;9.90;99.90;;;;;;5108242;28;20034;-47
2023/11/15 05:11:48;;;;;;;16.08;2.63;;;10.00;99.90;;;;;;5126270;28;20031;-48
2023/11/15 05:14:14;;;;;;;14.63;2.78;;;10.00;99.90;;;;;;5126330;28;20081;-49
2023/11/15 05:16:39;;;;;;;11.60;2.05;;;10.00;99.90;;;;;;5126376;28;20024;-48
2023/11/15 05:19:05;;;;;;;9.15;2.60;;;10.00;99.90;;;;;;5126379;28;20091;-47
2023/11/15 05:21:31;;;;;;;17.05;2.55;;;10.00;99.90;;;;;;5125471;28;20035;-49
2023/11/15 05:23:56;;;;;;;16.90;2.72;;;10.00;99.90;;;;;;5126294;28;20019;-48
2023/11/15 05:26:22;;;;;;;14.57;2.97;;;10.00;99.90;;;;;;5126223;28;20043;-47
2023/11/15 05:28:49;;;;;;;16.08;2.25;;;10.00;99.90;;;;;;5126390;28;20080;-49
2023/11/15 05:31:16;;;;;;;16.90;2.33;;;10.00;99.90;;;;;;5126344;28;20181;-48
2023/11/15 05:33:41;;;;;;;16.55;2.30;;;10.00;99.90;;;;;;5108756;28;20038;-48
2023/11/15 05:36:08;;;;;;;13.63;2.20;;;10.00;99.90;;;;;;5124919;28;20043;-47
2023/11/15 05:38:35;;;;;;;14.15;2.70;;;10.00;99.90;;;;;;5126160;28;20025;-46
2023/11/15 05:41:02;;;;;;;11.40;1.90;;;10.00;99.90;;;;;;5126179;28;20028;-49
2023/11/15 05:43:28;;;;;;;11.60;2.58;;;9.90;99.90;;;;;;5124903;28;20253;-47
2023/11/15 05:45:54;;;;;;;15.20;3.00;;;9.90;99.90;;;;;;5125858;28;20024;-50
2023/11/15 05:48:20;;;;;;;19.17;3.08;;;9.90;99.90;;;;;;5125990;28;20027;-51
2023/11/15 05:50:45;;;;;;;17.90;2.67;;;9.80;99.90;;;;;;5125029;28;20035;-48
2023/11/15 05:53:11;;;;;;;12.25;2.53;;;9.80;99.90;;;;;;5125974;28;20027;-49
2023/11/15 05:55:37;;;;;;;12.35;2.80;;;9.70;99.90;;;;;;5125912;28;20031;-48
2023/11/15 05:58:04;;;;;;;17.65;2.58;;;9.70;99.90;;;;;;5126136;28;20104;-48
2023/11/15 06:00:31;;;;;;;16.75;2.20;;;9.70;99.90;;;;;;5125913;28;20319;-49
2023/11/15 06:02:57;;;;;;;12.48;2.15;;;9.70;99.90;;;;;;5124953;28;20042;-47
2023/11/15 06:05:22;;;;;;;14.88;2.83;;;9.70;99.90;;;;;;5128372;28;20285;-49
2023/11/15 06:07:48;;;;;;;11.85;1.92;;;9.60;99.90;;;;;;5129520;28;20059;-48
2023/11/15 06:10:14;;;;;;;23.67;2.72;;;9.70;99.90;;;;;;5129789;28;20072;-48
2023/11/15 06:12:40;;;;;;;14.50;2.50;;;9.60;99.90;;;;;;5111633;28;20031;-50
2023/11/15 06:15:10;;;;;;;15.35;2.70;;;9.50;99.90;;;;;;5129810;28;20180;-47
2023/11/15 06:17:36;;;;;;;;;;;9.50;99.90;;;;;;5130213;28;20038;-49
2023/11/15 06:20:02;;;;;;;17.60;2.60;;;9.50;99.90;;;;;;5128628;28;19911;-49
2023/11/15 06:22:28;;;;;;;16.02;2.35;;;9.50;99.90;;;;;;5129624;28;20015;-48
2023/11/15 06:24:54;;;;;;;17.15;2.40;;;9.40;99.90;;;;;;5129570;28;20034;-48
2023/11/15 06:27:20;;;;;;;12.98;1.90;;;9.40;99.90;;;;;;5129492;28;20105;-48
2023/11/15 06:29:49;;;;;;;17.85;3.15;;;9.40;99.90;;;;;;5128368;28;20162;-48
2023/11/15 06:32:15;;;;;;;12.65;2.13;;;9.40;99.90;;;;;;5129354;28;20058;-48
2023/11/15 06:34:44;;;;;;;14.13;2.20;;;9.40;99.90;;;;;;5128456;28;20363;-49
2023/11/15 06:37:13;;;;;;;15.05;2.75;;;9.40;99.90;;;;;;5111731;28;20023;-48
2023/11/15 06:39:43;;;;;;;10.15;1.90;;;9.40;99.90;;;;;;5129111;28;20034;-49
2023/11/15 06:42:10;;;;;;;12.98;3.75;;;9.40;99.90;;;;;;5128096;28;20054;-51
2023/11/15 06:44:40;;;;;;;12.10;2.58;;;9.40;99.90;;;;;;5128141;28;20081;-51
2023/11/15 06:47:08;;;;;;;;;;;9.40;99.90;;;;;;5128405;28;20031;-49
2023/11/15 06:49:36;;;;;;;13.90;2.28;;;9.30;99.90;;;;;;5129077;28;19907;-49
2023/11/15 06:52:02;;;;;;;18.20;2.30;;;9.30;99.90;;;;;;5128809;28;20095;-49
2023/11/15 06:54:27;;;;;;;12.88;2.10;;;9.30;99.90;;;;;;5129104;28;20286;-52
2023/11/15 06:56:53;;;;;;;12.43;2.47;;;9.40;99.90;;;;;;5127503;28;20023;-51
2023/11/15 06:59:19;;;;;;;12.07;2.15;;;9.40;99.90;;;;;;5128780;28;20181;-48
2023/11/15 07:01:48;;;;;;;12.10;2.97;;;9.40;99.90;;;;;;5128859;28;20039;-50
2023/11/15 07:04:14;;;;;;;15.68;2.50;;;9.40;99.90;;;;;;5127950;28;20061;-49
2023/11/15 07:06:44;;;;;;;13.02;2.50;;;9.40;99.90;;;;;;5127491;28;20096;-47
2023/11/15 07:09:12;;;;;;;10.02;2.45;;;9.40;99.90;;;;;;5127640;28;20027;-49
2023/11/15 07:11:45;;;;;;;15.45;2.38;;;9.40;99.90;;;;;;5127716;28;20166;-48
2023/11/15 07:14:11;;;;;;;13.95;2.33;;;9.40;99.90;;;;;;5128577;28;20087;-48
2023/11/15 07:16:36;;;;;;;11.57;2.28;;;9.30;99.90;;;;;;5127752;28;20046;-49
2023/11/15 07:19:02;;;;;;;15.95;2.30;;;9.30;99.90;;;;;;5127622;28;20027;-49
2023/11/15 07:21:30;;;;;;;12.77;2.38;;;9.30;99.90;;;;;;5128598;28;20100;-47
2023/11/15 07:23:58;;;;;;;16.02;2.90;;;9.40;99.90;;;;;;5128275;28;20050;-51
2023/11/15 07:26:24;;;;;;;11.68;2.33;;;9.40;99.90;;;;;;5128301;28;20023;-51
2023/11/15 07:28:50;;;;;;;10.70;2.33;;;9.40;99.90;;;;;;5127945;28;20027;-51
2023/11/15 07:31:18;;;;;;;14.38;2.20;;;9.40;99.90;;;;;;5127861;28;20031;-48
2023/11/15 07:33:44;;;;;;;13.43;2.50;;;9.30;99.90;;;;;;5128174;28;20019;-49
2023/11/15 07:36:11;;;;;;;14.85;2.47;;;9.30;99.90;;;;;;5127937;28;20031;-49
2023/11/15 07:38:36;;;;;;;14.80;3.97;;;9.40;99.90;;;;;;5128145;28;20026;-48
2023/11/15 07:41:02;;;;;;;10.60;2.22;;;9.50;99.90;;;;;;5128084;28;20087;-47
2023/11/15 07:43:28;;;;;;;14.25;2.08;;;9.50;99.90;;;;;;5127817;28;20027;-48
2023/11/15 07:45:54;;;;;;;12.88;2.50;;;9.60;99.90;;;;;;5127788;28;20078;-47
2023/11/15 07:48:20;;;;;;;13.02;2.30;;;9.60;99.90;;;;;;5126719;28;20047;-50
2023/11/15 07:50:46;;;;;;;12.50;2.70;;;9.70;99.90;;;;;;5127998;28;20027;-50
2023/11/15 07:53:12;;;;;;;14.50;2.53;;;9.80;99.90;;;;;;5127909;28;20054;-47
2023/11/15 07:55:38;;;;;;;9.18;1.88;;;9.80;99.90;;;;;;5127863;28;20015;-50
2023/11/15 07:58:06;;;;;;;13.93;2.72;;;9.80;99.90;;;;;;5127428;28;20079;-54
2023/11/15 08:00:34;;;;;;;16.85;2.20;;;9.90;99.90;;;;;;5127234;28;20015;-46
2023/11/15 08:02:59;;;;;;;13.88;2.33;;;9.80;99.90;;;;;;5127011;28;20305;-46
2023/11/15 08:05:26;;;;;;;18.55;2.35;;;9.80;99.90;;;;;;5127346;28;20063;-47
2023/11/15 08:07:52;;;;;;;13.40;2.05;;;9.80;99.90;;;;;;5126168;28;20047;-47
2023/11/15 08:10:18;;;;;;;10.48;2.38;;;9.80;99.90;;;;;;5127451;28;20016;-46
2023/11/15 08:12:44;;;;;;;11.10;2.25;;;9.80;99.90;;;;;;5127457;28;20095;-46
2023/11/15 08:15:17;;;;;;;13.55;2.47;;;9.80;99.90;;;;;;5126067;28;20319;-47
2023/11/15 08:17:44;;;;;;;15.05;2.42;;;9.90;99.90;;;;;;5127192;28;20024;-47
2023/11/15 08:20:10;;;;;;;9.88;1.83;;;9.90;99.90;;;;;;5126324;28;20187;-46
2023/11/15 08:22:38;;;;;;;14.32;3.45;;;9.90;99.90;;;;;;5127145;28;20019;-47
2023/11/15 08:25:07;;;;;;;20.98;3.10;;;10.00;99.90;;;;;;5127092;28;20023;-46
2023/11/15 08:27:35;;;;;;;11.50;2.25;;;10.00;99.90;;;;;;5126315;28;20035;-46
2023/11/15 08:30:05;;;;;;;15.65;2.00;;;10.10;99.90;;;;;;5125927;28;20060;-46
2023/11/15 08:32:33;;;;;;;15.77;2.00;;;10.10;99.90;;;;;;5126567;28;20319;-47
2023/11/15 08:34:58;;;;;;;8.45;2.25;;;10.10;99.90;;;;;;5126874;28;20039;-47
2023/11/15 08:37:24;;;;;;;15.40;2.30;;;10.20;99.90;;;;;;5126793;28;20051;-46
2023/11/15 08:39:50;;;;;;;13.68;2.80;;;10.20;99.90;;;;;;5126522;28;20039;-48
2023/11/15 08:42:16;;;;;;;11.07;2.65;;;10.30;99.90;;;;;;5126349;28;20271;-47
2023/11/15 08:44:43;;;;;;;12.55;2.83;;;10.30;99.90;;;;;;5126311;28;20086;-46
2023/11/15 08:47:09;;;;;;;12.68;2.28;;;10.30;99.90;;;;;;5124877;28;20027;-47
2023/11/15 08:49:37;;;;;;;11.18;2.15;;;10.30;99.90;;;;;;5126518;28;20019;-46
2023/11/15 08:52:04;;;;;;;15.45;2.50;;;10.30;99.90;;;;;;5126434;28;20028;-47
2023/11/15 08:54:30;;;;;;;14.63;2.35;;;10.20;99.90;;;;;;5125414;28;20337;-48
2023/11/15 08:56:56;;;;;;;12.65;2.70;;;10.30;99.90;;;;;;5126358;28;20289;-49
2023/11/15 08:59:24;;;;;;;12.75;2.47;;;10.30;99.90;;;;;;5126479;28;20038;-47
2023/11/15 09:01:50;;;;;;;12.02;2.47;;;10.30;99.90;;;;;;5125183;28;20015;-47
2023/11/15 09:04:16;;;;;;;16.80;2.10;;;10.30;99.90;;;;;;5125169;28;20050;-47
2023/11/15 09:06:46;;;;;;;12.73;2.20;;;10.30;99.90;;;;;;5124916;28;20051;-48
2023/11/15 09:09:14;;;;;;;;;;;10.30;99.90;;;;;;5126767;28;20107;-52
2023/11/15 09:11:40;;;;;;;17.38;3.45;;;10.40;99.90;;;;;;5126063;28;19903;-48
2023/11/15 09:14:08;;;;;;;11.20;2.75;;;10.40;99.90;;;;;;5124972;28;20296;-47
2023/11/15 09:16:34;;;;;;;8.98;1.90;;;10.40;99.90;;;;;;5126051;28;20202;-46
2023/11/15 09:19:04;;;;;;;10.48;2.25;;;10.40;99.90;;;;;;5125448;28;20039;-46
2023/11/15 09:21:33;;;;;;;13.65;2.28;;;10.50;99.90;;;;;;5125685;28;20039;-47
2023/11/15 09:24:00;;;;;;;9.70;2.37;;;10.40;99.90;;;;;;5124731;28;20024;-47
2023/11/15 09:26:26;;;;;;;11.30;2.75;;;10.40;99.90;;;;;;5125913;28;20023;-48
2023/11/15 09:28:53;;;;;;;16.83;2.53;;;10.50;99.90;;;;;;5126070;28;20077;-49
2023/11/15 09:31:19;;;;;;;15.15;2.60;;;10.50;99.90;;;;;;5125914;28;20032;-47
2023/11/15 09:33:45;;;;;;;13.00;2.33;;;10.70;99.90;;;;;;5124664;28;20293;-49
2023/11/15 09:36:11;;;;;;;13.00;2.00;;;11.30;99.90;;;;;;5125461;28;20074;-48
2023/11/15 09:38:39;;;;;;;14.45;3.90;;;11.30;99.90;;;;;;5125894;28;20177;-48
2023/11/15 09:41:10;;;;;;;11.15;2.05;;;11.30;99.90;;;;;;5129958;28;20027;-49
2023/11/15 09:43:36;;;;;;;16.77;2.50;;;11.30;99.90;;;;;;5129171;28;20035;-51
2023/11/15 09:46:08;;;;;;;9.65;2.10;;;11.20;99.90;;;;;;5130107;28;20039;-51
2023/11/15 09:48:34;;;;;;;14.80;1.75;;;11.30;99.90;;;;;;5112975;28;20064;-51
2023/11/15 09:51:01;;;;;;;9.52;2.83;;;11.30;99.90;;;;;;5111680;28;20067;-51
2023/11/15 09:53:27;;;;;;;11.73;1.95;;;11.30;99.90;;;;;;5112004;28;20019;-52
2023/11/15 09:55:53;;;;;;;11.57;2.22;;;11.20;99.90;;;;;;5129664;28;20345;-51
2023/11/15 09:58:19;;;;;;;9.00;1.83;;;11.10;99.90;;;;;;5129664;28;20036;-49
2023/11/15 10:00:46;;;;;;;8.38;1.83;;;11.10;99.90;;;;;;5129814;28;20024;-50
2023/11/15 10:03:12;;;;;;;13.45;2.28;;;11.10;99.90;;;;;;5129912;28;20054;-48
2023/11/15 10:05:42;;;;;;;6.40;1.50;;;11.10;99.90;;;;;;5129787;28;20039;-48
2023/11/15 10:08:09;;;;;;;10.43;2.33;;;11.10;99.90;;;;;;5128468;28;20051;-48
2023/11/15 10:10:34;;;;;;;8.52;1.92;;;11.00;99.90;;;;;;5129919;28;20043;-48
2023/11/15 10:13:00;;;;;;;13.27;2.22;;;11.00;99.90;;;;;;5111608;28;20042;-51
2023/11/15 10:15:30;;;;;;;12.93;2.20;;;11.10;99.90;;;;;;5129602;28;20173;-48
2023/11/15 10:17:56;;;;;;;;;;;11.20;99.90;;;;;;5129246;28;20096;-50
2023/11/15 10:20:25;;;;;;;9.48;1.80;;;11.20;99.90;;;;;;5129614;28;19979;-51
2023/11/15 10:22:53;;;;;;;11.17;2.70;;;11.20;99.90;;;;;;5129545;28;20177;-50
2023/11/15 10:25:22;;;;;;;12.85;2.17;;;11.20;99.90;;;;;;5129158;28;20023;-50
2023/11/15 10:27:51;;;;;;;13.82;1.95;;;11.20;99.90;;;;;;5129230;28;20020;-50
2023/11/15 10:30:16;;;;;;;9.35;1.80;;;11.30;99.90;;;;;;5111448;28;20269;-51
2023/11/15 10:32:46;;;;;;;10.63;2.00;;;11.40;99.90;;;;;;5129372;28;20023;-51
2023/11/15 10:35:28;;;;;;;12.57;1.50;;;11.60;99.90;;;;;;5129232;28;20335;-52
2023/11/15 10:37:54;;;;;;;15.50;2.00;;;11.60;99.90;;;;;;5127846;28;20061;-50
2023/11/15 10:40:25;;;;;;;12.80;2.10;;;11.70;99.90;;;;;;5128719;28;20305;-51
2023/11/15 10:42:52;;;;;;;10.43;1.88;;;11.90;99.90;;;;;;5128440;28;20019;-50
2023/11/15 10:45:18;;;;;;;8.15;1.58;;;12.00;99.90;;;;;;5128588;28;20185;-51
2023/11/15 10:47:49;;;;;;;12.15;2.30;;;11.90;99.90;;;;;;5127994;28;20031;-49
2023/11/15 10:50:15;;;;;;;15.20;3.05;;;11.90;99.90;;;;;;5127694;28;20042;-50
2023/11/15 10:52:42;;;;;;;9.35;1.83;;;12.00;99.90;;;;;;5110166;28;20051;-49
2023/11/15 10:55:10;;;;;;;10.43;1.60;;;12.00;99.90;;;;;;5127909;28;20027;-48
2023/11/15 10:57:37;;;;;;;9.48;2.42;;;11.90;99.90;;;;;;5127409;28;20027;-50
2023/11/15 11:00:07;;;;;;;33.10;10.93;;;11.90;99.90;;;;;;5127114;28;20086;-51
2023/11/15 11:02:33;;;;;;;10.65;1.88;;;11.80;99.90;;;;;;5128614;28;20027;-51
2023/11/15 11:04:59;;;;;;;15.10;3.22;;;11.70;99.90;;;;;;5128750;28;20024;-49
2023/11/15 11:08:19;;;;;;;10.55;2.35;;;11.70;99.90;;;;;;5127531;28;20055;-52
2023/11/15 11:10:59;;;;;;;18.17;7.97;;;11.70;99.90;;;;;;5066726;28;20036;-51
2023/11/15 11:13:25;;;;;;;14.10;2.10;;;11.70;99.90;;;;;;5118591;28;20043;-51
2023/11/15 11:15:51;;;;;;;8.57;2.15;;;11.80;99.90;;;;;;5127892;28;20046;-51
2023/11/15 11:18:21;;;;;;;10.02;2.17;;;12.00;99.90;;;;;;5128182;28;20324;-52
2023/11/15 11:21:01;;;;;;;10.63;1.75;;;11.90;99.90;;;;;;5127395;28;20020;-52
2023/11/15 11:23:28;;;;;;;8.77;2.00;;;11.90;99.90;;;;;;5127344;28;20095;-52
2023/11/15 11:25:56;;;;;;;8.75;1.85;;;11.90;99.90;;;;;;5110259;28;20069;-51
2023/11/15 11:28:22;;;;;;;10.07;1.70;;;12.00;99.90;;;;;;5127004;28;20027;-52
2023/11/15 11:31:15;;;;;;;11.85;2.05;;;12.10;99.90;;;;;;5128230;28;20311;-49
2023/11/15 11:34:10;;;;;;;9.00;2.05;;;12.30;99.90;;;;;;5121460;28;20102;-52
2023/11/15 11:36:49;;;;;;;6.82;3.08;;;14.10;99.90;;;;;;5127087;28;20027;-52
2023/11/15 11:39:20;;;;;;;9.07;2.08;;;15.90;94.10;;;;;;5128012;28;20034;-52
2023/11/15 11:41:49;;;;;;;5.55;1.65;;;16.90;74.20;;;;;;5128041;28;20020;-49
2023/11/15 11:44:17;;;;;;;6.50;1.67;;;17.40;59.80;;;;;;5127236;28;20079;-47
2023/11/15 11:46:44;;;;;;;9.25;2.35;;;17.10;60.60;;;;;;5127307;28;20220;-49
2023/11/15 11:49:09;;;;;;;6.70;1.85;;;17.50;54.10;;;;;;5127663;28;20062;-50
2023/11/15 11:51:35;;;;;;;8.80;2.20;;;17.80;56.20;;;;;;5127492;28;20023;-50
2023/11/15 11:54:01;;;;;;;27.27;13.00;;;17.40;58.00;;;;;;5126612;28;20028;-50
2023/11/15 11:56:28;;;;;;;7.40;2.15;;;18.80;51.20;;;;;;5126152;28;20251;-51
2023/11/15 11:58:54;;;;;;;5.47;1.25;;;19.40;38.50;;;;;;5127211;28;20038;-49
2023/11/15 12:01:21;;;;;;;7.55;2.58;;;19.00;36.00;;;;;;5127300;28;20031;-47
2023/11/15 12:03:47;;;;;;;7.97;1.73;;;19.20;35.60;;;;;;5125718;28;20042;-49
2023/11/15 12:06:13;;;;;;;9.20;2.05;;;19.60;35.60;;;;;;5109250;28;20027;-48
2023/11/15 12:08:40;;;;;;;6.63;1.92;;;19.90;32.30;;;;;;5126083;28;20105;-48
2023/11/15 12:11:06;;;;;;;8.02;3.40;;;20.10;32.90;;;;;;5127113;28;20027;-48
2023/11/15 12:13:42;;;;;;;10.13;1.98;;;20.10;30.70;;;;;;5126711;28;20039;-51
2023/11/15 12:16:15;;;;;;;8.45;1.98;;;20.10;31.90;;;;;;5126105;28;20035;-51
2023/11/15 12:18:41;;;;;;;13.65;7.05;;;20.30;29.90;;;;;;5126600;28;20039;-52
2023/11/15 12:21:07;;;;;;;8.85;3.08;;;20.70;28.50;;;;;;5126712;28;20024;-50
2023/11/15 12:23:32;;;;;;;8.45;2.20;;;19.90;28.30;;;;;;5125758;28;20338;-51
2023/11/15 12:26:01;;;;;;;9.25;3.30;;;18.10;34.60;;;;;;5125832;28;20023;-52
2023/11/15 12:28:27;;;;;;;6.95;1.45;;;18.00;40.30;;;;;;5125554;28;20027;-50
2023/11/15 12:30:53;;;;;;;10.25;1.90;;;18.80;34.80;;;;;;5125755;28;20037;-52
2023/11/15 12:33:19;;;;;;;8.35;1.80;;;18.60;33.60;;;;;;5108327;28;20291;-51
2023/11/15 12:35:45;;;;;;;9.15;2.20;;;18.10;36.50;;;;;;5125285;28;20055;-52
2023/11/15 12:38:14;;;;;;;9.07;3.25;;;18.60;36.00;;;;;;5125346;28;20050;-53
2023/11/15 12:40:44;;;;;;;8.97;1.70;;;18.30;35.40;;;;;;5125632;28;20091;-52
2023/11/15 12:43:25;;;;;;;9.07;1.92;;;16.90;40.90;;;;;;5126683;28;20024;-52